Station Historical Data
Daily Summary for January 11, 2017 Units:  Both    English   Metric
« Previous Day
Next Day »
Daily Weekly Monthly Yearly Custom
  High: Low: Average:
Temperature: 62.2 °F /  16.8 °C 53.7 °F /  12.1 °C 56.6 °F /  13.7 °C
Dew Point: 55.7 °F /  13.2 °C 43.3 °F /  6.3 °C 49.2 °F /  9.6 °C
Humidity: 91% 63% 77%
Wind Speed: 10.4mph /  16.7km/h - 10.4mph /  16.7km/h
Wind Gust: 10.4mph /  16.7km/h - -
Wind- - SE
Pressure: 30.38 in /  1028.7 hPa 30.26 in /  1024.6 hPa -
Precipitation: 0.02 in /  0.51 mm    
Historical Graphs
 
 
Tabular Data for January 11, 2017
Time Temperature Dew Point Pressure Wind Wind Speed Wind Gust Humidity Rainfall Rate (Hourly) Conditions
00:00 54.5 °F /  12.5 °C 43.8 °F /  6.6 °C 30.34in /  1027.3hPa North 10.4mph /  16.7km/h 10.4mph /  16.7km/h 67% 0.00in /  0mm
00:05 54.3 °F /  12.4 °C 43.6 °F /  6.4 °C 30.34in /  1027.3hPa North 10.4mph /  16.7km/h 10.4mph /  16.7km/h 67% 0.00in /  0mm
00:10 54.3 °F /  12.4 °C 43.6 °F /  6.4 °C 30.33in /  1027hPa NW 10.4mph /  16.7km/h 10.4mph /  16.7km/h 67% 0.00in /  0mm
00:15 54.4 °F /  12.4 °C 43.3 °F /  6.3 °C 30.33in /  1027hPa NW 10.4mph /  16.7km/h   66% 0.00in /  0mm
00:20 54.4 °F /  12.4 °C 43.7 °F /  6.5 °C 30.33in /  1027hPa NNE 10.4mph /  16.7km/h 10.4mph /  16.7km/h 67% 0.00in /  0mm
00:25 54.5 °F /  12.5 °C 43.8 °F /  6.6 °C 30.33in /  1027hPa NW 10.4mph /  16.7km/h 10.4mph /  16.7km/h 67% 0.00in /  0mm
00:30 54.4 °F /  12.4 °C 43.7 °F /  6.5 °C 30.33in /  1027hPa NW 10.4mph /  16.7km/h 10.4mph /  16.7km/h 67% 0.00in /  0mm
00:35 54.4 °F /  12.4 °C 43.7 °F /  6.5 °C 30.33in /  1027hPa NNW 10.4mph /  16.7km/h 10.4mph /  16.7km/h 67% 0.00in /  0mm
00:40 54.4 °F /  12.4 °C 43.7 °F /  6.5 °C 30.33in /  1027hPa NNW 10.4mph /  16.7km/h   67% 0.00in /  0mm
00:46 54.3 °F /  12.4 °C 43.6 °F /  6.4 °C 30.33in /  1027hPa NNW 10.4mph /  16.7km/h 10.4mph /  16.7km/h 67% 0.00in /  0mm
00:51 54.3 °F /  12.4 °C 44.0 °F /  6.7 °C 30.33in /  1027hPa NNW 10.4mph /  16.7km/h   68% 0.00in /  0mm
00:56 54.2 °F /  12.3 °C 43.9 °F /  6.6 °C 30.33in /  1027hPa WNW 10.4mph /  16.7km/h   68% 0.00in /  0mm
01:01 54.3 °F /  12.4 °C 44.0 °F /  6.7 °C 30.32in /  1026.6hPa WNW 10.4mph /  16.7km/h 10.4mph /  16.7km/h 68% 0.00in /  0mm
01:06 54.2 °F /  12.3 °C 43.9 °F /  6.6 °C 30.32in /  1026.6hPa NW 10.4mph /  16.7km/h 10.4mph /  16.7km/h 68% 0.00in /  0mm
01:11 54.2 °F /  12.3 °C 43.9 °F /  6.6 °C 30.32in /  1026.6hPa NW 10.4mph /  16.7km/h 10.4mph /  16.7km/h 68% 0.00in /  0mm
01:16 54.3 °F /  12.4 °C 44.0 °F /  6.7 °C 30.32in /  1026.6hPa NW 10.4mph /  16.7km/h 10.4mph /  16.7km/h 68% 0.00in /  0mm
01:21 54.4 °F /  12.4 °C 44.1 °F /  6.7 °C 30.32in /  1026.6hPa NW 10.4mph /  16.7km/h 10.4mph /  16.7km/h 68% 0.00in /  0mm
01:26 54.5 °F /  12.5 °C 44.2 °F /  6.8 °C 30.32in /  1026.6hPa NW 10.4mph /  16.7km/h   68% 0.00in /  0mm
01:31 54.5 °F /  12.5 °C 44.2 °F /  6.8 °C 30.32in /  1026.6hPa NNW 10.4mph /  16.7km/h   68% 0.00in /  0mm
01:36 54.4 °F /  12.4 °C 44.4 °F /  6.9 °C 30.32in /  1026.6hPa NW 10.4mph /  16.7km/h 10.4mph /  16.7km/h 69% 0.00in /  0mm
01:41 54.7 °F /  12.6 °C 44.7 °F /  7.1 °C 30.32in /  1026.6hPa NW 10.4mph /  16.7km/h   69% 0.00in /  0mm
01:47 54.7 °F /  12.6 °C 44.7 °F /  7.1 °C 30.32in /  1026.6hPa West 10.4mph /  16.7km/h   69% 0.00in /  0mm
01:52 54.5 °F /  12.5 °C 44.5 °F /  6.9 °C 30.32in /  1026.6hPa WNW 10.4mph /  16.7km/h 10.4mph /  16.7km/h 69% 0.00in /  0mm
01:57 53.7 °F /  12.1 °C 43.8 °F /  6.6 °C 30.32in /  1026.6hPa NW 10.4mph /  16.7km/h   69% 0.00in /  0mm
02:02 53.7 °F /  12.1 °C 43.8 °F /  6.6 °C 30.32in /  1026.6hPa NW 10.4mph /  16.7km/h   69% 0.00in /  0mm
02:07 53.7 °F /  12.1 °C 43.8 °F /  6.6 °C 30.32in /  1026.6hPa NW 10.4mph /  16.7km/h   69% 0.00in /  0mm
02:12 53.7 °F /  12.1 °C 43.8 °F /  6.6 °C 30.32in /  1026.6hPa North 10.4mph /  16.7km/h   69% 0.00in /  0mm
02:17 53.7 °F /  12.1 °C 43.8 °F /  6.6 °C 30.32in /  1026.6hPa North 10.4mph /  16.7km/h   69% 0.00in /  0mm
02:22 53.7 °F /  12.1 °C 43.8 °F /  6.6 °C 30.32in /  1026.6hPa North 10.4mph /  16.7km/h   69% 0.00in /  0mm
02:27 53.7 °F /  12.1 °C 43.8 °F /  6.6 °C 30.32in /  1026.6hPa North 10.4mph /  16.7km/h   69% 0.00in /  0mm
02:32 53.7 °F /  12.1 °C 43.8 °F /  6.6 °C 30.32in /  1026.6hPa North 10.4mph /  16.7km/h   69% 0.00in /  0mm
02:37 53.7 °F /  12.1 °C 43.8 °F /  6.6 °C 30.31in /  1026.3hPa North 10.4mph /  16.7km/h   69% 0.00in /  0mm
02:43 53.7 °F /  12.1 °C 43.8 °F /  6.6 °C 30.31in /  1026.3hPa North 10.4mph /  16.7km/h   69% 0.00in /  0mm
02:48 53.7 °F /  12.1 °C 43.8 °F /  6.6 °C 30.31in /  1026.3hPa North 10.4mph /  16.7km/h   69% 0.00in /  0mm
02:53 53.7 °F /  12.1 °C 43.8 °F /  6.6 °C 30.31in /  1026.3hPa North 10.4mph /  16.7km/h   69% 0.00in /  0mm
02:58 53.7 °F /  12.1 °C 43.8 °F /  6.6 °C 30.31in /  1026.3hPa North 10.4mph /  16.7km/h   69% 0.00in /  0mm
03:03 53.7 °F /  12.1 °C 43.8 °F /  6.6 °C 30.31in /  1026.3hPa North 10.4mph /  16.7km/h   69% 0.00in /  0mm
03:08 53.7 °F /  12.1 °C 43.8 °F /  6.6 °C 30.31in /  1026.3hPa North 10.4mph /  16.7km/h   69% 0.00in /  0mm
03:13 53.7 °F /  12.1 °C 43.8 °F /  6.6 °C 30.31in /  1026.3hPa North 10.4mph /  16.7km/h   69% 0.00in /  0mm
03:18 53.7 °F /  12.1 °C 43.8 °F /  6.6 °C 30.31in /  1026.3hPa North 10.4mph /  16.7km/h   69% 0.00in /  0mm
03:23 53.7 °F /  12.1 °C 43.8 °F /  6.6 °C 30.31in /  1026.3hPa North 10.4mph /  16.7km/h   69% 0.00in /  0mm
03:28 53.7 °F /  12.1 °C 43.8 °F /  6.6 °C 30.31in /  1026.3hPa North 10.4mph /  16.7km/h   69% 0.00in /  0mm
03:33 53.7 °F /  12.1 °C 43.8 °F /  6.6 °C 30.31in /  1026.3hPa North 10.4mph /  16.7km/h   69% 0.00in /  0mm
03:38 53.7 °F /  12.1 °C 43.8 °F /  6.6 °C 30.31in /  1026.3hPa North 10.4mph /  16.7km/h   69% 0.00in /  0mm
03:44 53.7 °F /  12.1 °C 43.8 °F /  6.6 °C 30.31in /  1026.3hPa North 10.4mph /  16.7km/h   69% 0.00in /  0mm
03:49 53.7 °F /  12.1 °C 43.8 °F /  6.6 °C 30.31in /  1026.3hPa North 10.4mph /  16.7km/h   69% 0.00in /  0mm
03:54 53.7 °F /  12.1 °C 43.8 °F /  6.6 °C 30.31in /  1026.3hPa North 10.4mph /  16.7km/h   69% 0.00in /  0mm
03:59 53.7 °F /  12.1 °C 43.8 °F /  6.6 °C 30.31in /  1026.3hPa North 10.4mph /  16.7km/h   69% 0.00in /  0mm
04:04 53.7 °F /  12.1 °C 43.8 °F /  6.6 °C 30.31in /  1026.3hPa North 10.4mph /  16.7km/h   69% 0.00in /  0mm
04:09 53.7 °F /  12.1 °C 43.8 °F /  6.6 °C 30.30in /  1026hPa North 10.4mph /  16.7km/h   69% 0.00in /  0mm
04:14 53.7 °F /  12.1 °C 43.8 °F /  6.6 °C 30.31in /  1026.3hPa North 10.4mph /  16.7km/h   69% 0.00in /  0mm
04:19 53.7 °F /  12.1 °C 43.8 °F /  6.6 °C 30.31in /  1026.3hPa North 10.4mph /  16.7km/h   69% 0.00in /  0mm
04:24 53.7 °F /  12.1 °C 43.8 °F /  6.6 °C 30.31in /  1026.3hPa North 10.4mph /  16.7km/h   69% 0.00in /  0mm
04:29 53.7 °F /  12.1 °C 43.8 °F /  6.6 °C 30.31in /  1026.3hPa North 10.4mph /  16.7km/h   69% 0.00in /  0mm
04:34 53.7 °F /  12.1 °C 43.8 °F /  6.6 °C 30.31in /  1026.3hPa North 10.4mph /  16.7km/h   69% 0.00in /  0mm
04:39 53.7 °F /  12.1 °C 43.8 °F /  6.6 °C 30.31in /  1026.3hPa North 10.4mph /  16.7km/h   69% 0.00in /  0mm
04:44 53.7 °F /  12.1 °C 43.8 °F /  6.6 °C 30.30in /  1026hPa North 10.4mph /  16.7km/h   69% 0.00in /  0mm
04:49 53.7 °F /  12.1 °C 43.8 °F /  6.6 °C 30.31in /  1026.3hPa North 10.4mph /  16.7km/h   69% 0.00in /  0mm
04:54 53.7 °F /  12.1 °C 43.8 °F /  6.6 °C 30.31in /  1026.3hPa North 10.4mph /  16.7km/h   69% 0.00in /  0mm
05:00 53.7 °F /  12.1 °C 43.8 °F /  6.6 °C 30.31in /  1026.3hPa North 10.4mph /  16.7km/h   69% 0.00in /  0mm
05:05 53.7 °F /  12.1 °C 43.8 °F /  6.6 °C 30.31in /  1026.3hPa North 10.4mph /  16.7km/h   69% 0.00in /  0mm
05:10 53.7 °F /  12.1 °C 43.8 °F /  6.6 °C 30.31in /  1026.3hPa North 10.4mph /  16.7km/h   69% 0.00in /  0mm
05:15 53.7 °F /  12.1 °C 43.8 °F /  6.6 °C 30.31in /  1026.3hPa North 10.4mph /  16.7km/h   69% 0.00in /  0mm
05:20 53.7 °F /  12.1 °C 43.8 °F /  6.6 °C 30.31in /  1026.3hPa North 10.4mph /  16.7km/h   69% 0.00in /  0mm
05:25 53.7 °F /  12.1 °C 43.8 °F /  6.6 °C 30.31in /  1026.3hPa North 10.4mph /  16.7km/h   69% 0.00in /  0mm
05:30 53.7 °F /  12.1 °C 43.8 °F /  6.6 °C 30.31in /  1026.3hPa North 10.4mph /  16.7km/h   69% 0.00in /  0mm
05:35 53.7 °F /  12.1 °C 43.8 °F /  6.6 °C 30.31in /  1026.3hPa North 10.4mph /  16.7km/h   69% 0.00in /  0mm
05:40 53.7 °F /  12.1 °C 43.8 °F /  6.6 °C 30.31in /  1026.3hPa North 10.4mph /  16.7km/h   69% 0.00in /  0mm
05:45 53.7 °F /  12.1 °C 43.8 °F /  6.6 °C 30.31in /  1026.3hPa North 10.4mph /  16.7km/h   69% 0.00in /  0mm
05:51 53.7 °F /  12.1 °C 43.8 °F /  6.6 °C 30.31in /  1026.3hPa North 10.4mph /  16.7km/h   69% 0.00in /  0mm
05:55 53.7 °F /  12.1 °C 43.8 °F /  6.6 °C 30.31in /  1026.3hPa North 10.4mph /  16.7km/h   69% 0.00in /  0mm
06:01 53.7 °F /  12.1 °C 43.8 °F /  6.6 °C 30.31in /  1026.3hPa North 10.4mph /  16.7km/h   69% 0.00in /  0mm
06:06 53.7 °F /  12.1 °C 43.8 °F /  6.6 °C 30.31in /  1026.3hPa North 10.4mph /  16.7km/h   69% 0.00in /  0mm
06:11 53.7 °F /  12.1 °C 43.8 °F /  6.6 °C 30.31in /  1026.3hPa North 10.4mph /  16.7km/h   69% 0.00in /  0mm
06:16 53.7 °F /  12.1 °C 43.8 °F /  6.6 °C 30.32in /  1026.6hPa North 10.4mph /  16.7km/h   69% 0.00in /  0mm
06:21 53.7 °F /  12.1 °C 43.8 °F /  6.6 °C 30.32in /  1026.6hPa North 10.4mph /  16.7km/h   69% 0.00in /  0mm
06:26 53.7 °F /  12.1 °C 43.8 °F /  6.6 °C 30.32in /  1026.6hPa North 10.4mph /  16.7km/h   69% 0.00in /  0mm
06:31 53.7 °F /  12.1 °C 43.8 °F /  6.6 °C 30.32in /  1026.6hPa North 10.4mph /  16.7km/h   69% 0.00in /  0mm
06:36 53.7 °F /  12.1 °C 43.8 °F /  6.6 °C 30.32in /  1026.6hPa North 10.4mph /  16.7km/h   69% 0.00in /  0mm
06:41 53.7 °F /  12.1 °C 43.8 °F /  6.6 °C 30.33in /  1027hPa North 10.4mph /  16.7km/h   69% 0.00in /  0mm
06:46 53.7 °F /  12.1 °C 43.8 °F /  6.6 °C 30.33in /  1027hPa North 10.4mph /  16.7km/h   69% 0.00in /  0mm
06:49 53.7 °F /  12.1 °C 43.8 °F /  6.6 °C 30.33in /  1027hPa North 10.4mph /  16.7km/h   69% 0.00in /  0mm
06:54 53.7 °F /  12.1 °C 43.8 °F /  6.6 °C 30.33in /  1027hPa North 10.4mph /  16.7km/h   69% 0.00in /  0mm
06:59 53.7 °F /  12.1 °C 43.8 °F /  6.6 °C 30.33in /  1027hPa North 10.4mph /  16.7km/h   69% 0.00in /  0mm
07:04 53.7 °F /  12.1 °C 43.8 °F /  6.6 °C 30.33in /  1027hPa North 10.4mph /  16.7km/h   69% 0.00in /  0mm
07:09 53.7 °F /  12.1 °C 43.8 °F /  6.6 °C 30.33in /  1027hPa North 10.4mph /  16.7km/h   69% 0.00in /  0mm
07:14 53.7 °F /  12.1 °C 43.8 °F /  6.6 °C 30.33in /  1027hPa North 10.4mph /  16.7km/h   69% 0.00in /  0mm CLR
07:19 53.7 °F /  12.1 °C 43.8 °F /  6.6 °C 30.33in /  1027hPa North 10.4mph /  16.7km/h   69% 0.00in /  0mm CLR
07:24 53.7 °F /  12.1 °C 43.8 °F /  6.6 °C 30.33in /  1027hPa North 10.4mph /  16.7km/h   69% 0.00in /  0mm CLR
07:29 53.7 °F /  12.1 °C 43.8 °F /  6.6 °C 30.33in /  1027hPa North 10.4mph /  16.7km/h   69% 0.00in /  0mm CLR
07:34 53.7 °F /  12.1 °C 43.8 °F /  6.6 °C 30.33in /  1027hPa North 10.4mph /  16.7km/h   69% 0.00in /  0mm CLR
07:39 53.7 °F /  12.1 °C 43.8 °F /  6.6 °C 30.34in /  1027.3hPa North 10.4mph /  16.7km/h   69% 0.00in /  0mm CLR
07:44 53.7 °F /  12.1 °C 43.8 °F /  6.6 °C 30.34in /  1027.3hPa North 10.4mph /  16.7km/h   69% 0.00in /  0mm CLR
07:50 53.7 °F /  12.1 °C 43.8 °F /  6.6 °C 30.34in /  1027.3hPa North 10.4mph /  16.7km/h   69% 0.00in /  0mm CLR
07:55 53.7 °F /  12.1 °C 43.8 °F /  6.6 °C 30.34in /  1027.3hPa North 10.4mph /  16.7km/h   69% 0.00in /  0mm CLR
08:00 53.7 °F /  12.1 °C 43.8 °F /  6.6 °C 30.34in /  1027.3hPa North 10.4mph /  16.7km/h   69% 0.00in /  0mm CLR
08:05 53.7 °F /  12.1 °C 43.8 °F /  6.6 °C 30.34in /  1027.3hPa North 10.4mph /  16.7km/h   69% 0.00in /  0mm CLR
08:10 53.7 °F /  12.1 °C 43.8 °F /  6.6 °C 30.34in /  1027.3hPa North 10.4mph /  16.7km/h   69% 0.00in /  0mm CLR
08:15 53.7 °F /  12.1 °C 43.8 °F /  6.6 °C 30.35in /  1027.7hPa North 10.4mph /  16.7km/h   69% 0.00in /  0mm CLR
08:20 53.7 °F /  12.1 °C 43.8 °F /  6.6 °C 30.34in /  1027.3hPa North 10.4mph /  16.7km/h   69% 0.00in /  0mm CLR
08:25 53.7 °F /  12.1 °C 43.8 °F /  6.6 °C 30.34in /  1027.3hPa North 10.4mph /  16.7km/h   69% 0.00in /  0mm CLR
08:30 53.7 °F /  12.1 °C 43.8 °F /  6.6 °C 30.35in /  1027.7hPa North 10.4mph /  16.7km/h   69% 0.00in /  0mm CLR
08:35 53.7 °F /  12.1 °C 43.8 °F /  6.6 °C 30.35in /  1027.7hPa North 10.4mph /  16.7km/h   69% 0.00in /  0mm CLR
08:40 53.7 °F /  12.1 °C 43.8 °F /  6.6 °C 30.35in /  1027.7hPa North 10.4mph /  16.7km/h   69% 0.00in /  0mm CLR
08:45 53.7 °F /  12.1 °C 43.8 °F /  6.6 °C 30.35in /  1027.7hPa North 10.4mph /  16.7km/h   69% 0.00in /  0mm CLR
08:50 53.7 °F /  12.1 °C 43.8 °F /  6.6 °C 30.36in /  1028hPa North 10.4mph /  16.7km/h   69% 0.00in /  0mm CLR
08:56 53.7 °F /  12.1 °C 43.8 °F /  6.6 °C 30.36in /  1028hPa North 10.4mph /  16.7km/h   69% 0.00in /  0mm CLR
09:01 53.7 °F /  12.1 °C 43.8 °F /  6.6 °C 30.36in /  1028hPa North 10.4mph /  16.7km/h   69% 0.00in /  0mm CLR
09:06 53.7 °F /  12.1 °C 43.8 °F /  6.6 °C 30.36in /  1028hPa North 10.4mph /  16.7km/h   69% 0.00in /  0mm OVC
09:11 53.7 °F /  12.1 °C 43.8 °F /  6.6 °C 30.37in /  1028.3hPa North 10.4mph /  16.7km/h   69% 0.00in /  0mm OVC
09:16 53.7 °F /  12.1 °C 43.8 °F /  6.6 °C 30.37in /  1028.3hPa North 10.4mph /  16.7km/h   69% 0.00in /  0mm OVC
09:21 53.7 °F /  12.1 °C 43.8 °F /  6.6 °C 30.37in /  1028.3hPa North 10.4mph /  16.7km/h   69% 0.00in /  0mm OVC
09:26 53.7 °F /  12.1 °C 43.8 °F /  6.6 °C 30.37in /  1028.3hPa North 10.4mph /  16.7km/h   69% 0.00in /  0mm OVC
09:31 53.7 °F /  12.1 °C 43.8 °F /  6.6 °C 30.37in /  1028.3hPa North 10.4mph /  16.7km/h   69% 0.00in /  0mm OVC
09:36 53.7 °F /  12.1 °C 43.8 °F /  6.6 °C 30.37in /  1028.3hPa North 10.4mph /  16.7km/h   69% 0.00in /  0mm OVC
09:41 53.7 °F /  12.1 °C 43.8 °F /  6.6 °C 30.37in /  1028.3hPa North 10.4mph /  16.7km/h   69% 0.00in /  0mm OVC
09:46 53.7 °F /  12.1 °C 43.8 °F /  6.6 °C 30.38in /  1028.7hPa North 10.4mph /  16.7km/h   69% 0.00in /  0mm OVC
09:49 53.7 °F /  12.1 °C 43.8 °F /  6.6 °C 30.38in /  1028.7hPa North 10.4mph /  16.7km/h   69% 0.00in /  0mm OVC
09:54 53.7 °F /  12.1 °C 43.8 °F /  6.6 °C 30.38in /  1028.7hPa North 10.4mph /  16.7km/h   69% 0.00in /  0mm OVC
09:59 53.7 °F /  12.1 °C 43.8 °F /  6.6 °C 30.38in /  1028.7hPa North 10.4mph /  16.7km/h   69% 0.00in /  0mm OVC
10:02 53.7 °F /  12.1 °C 43.8 °F /  6.6 °C 30.38in /  1028.7hPa North 10.4mph /  16.7km/h   69% 0.00in /  0mm OVC
10:07 53.7 °F /  12.1 °C 43.8 °F /  6.6 °C 30.38in /  1028.7hPa North 10.4mph /  16.7km/h   69% 0.00in /  0mm OVC
10:12 53.7 °F /  12.1 °C 43.8 °F /  6.6 °C 30.38in /  1028.7hPa North 10.4mph /  16.7km/h   69% 0.00in /  0mm OVC
10:17 53.7 °F /  12.1 °C 43.8 °F /  6.6 °C 30.38in /  1028.7hPa North 10.4mph /  16.7km/h   69% 0.00in /  0mm OVC
10:22 56.6 °F /  13.7 °C 47.7 °F /  8.7 °C 30.38in /  1028.7hPa NNW 10.4mph /  16.7km/h 10.4mph /  16.7km/h 72% 0.00in /  0mm OVC
10:27 57.0 °F /  13.9 °C 47.3 °F /  8.5 °C 30.38in /  1028.7hPa NW 10.4mph /  16.7km/h 10.4mph /  16.7km/h 70% 0.00in /  0mm OVC
10:32 57.2 °F /  14 °C 47.1 °F /  8.4 °C 30.38in /  1028.7hPa NW 10.4mph /  16.7km/h 10.4mph /  16.7km/h 69% 0.00in /  0mm OVC
10:37 57.3 °F /  14.1 °C 47.2 °F /  8.4 °C 30.38in /  1028.7hPa NW 10.4mph /  16.7km/h 10.4mph /  16.7km/h 69% 0.00in /  0mm OVC
10:42 57.5 °F /  14.2 °C 47.8 °F /  8.8 °C 30.37in /  1028.3hPa NW 10.4mph /  16.7km/h   70% 0.00in /  0mm OVC
10:47 57.7 °F /  14.3 °C 47.6 °F /  8.7 °C 30.37in /  1028.3hPa NW 10.4mph /  16.7km/h 10.4mph /  16.7km/h 69% 0.00in /  0mm OVC
10:53 57.7 °F /  14.3 °C 47.2 °F /  8.4 °C 30.37in /  1028.3hPa NW 10.4mph /  16.7km/h 10.4mph /  16.7km/h 68% 0.00in /  0mm OVC
10:58 57.8 °F /  14.3 °C 47.7 °F /  8.7 °C 30.37in /  1028.3hPa NW 10.4mph /  16.7km/h   69% 0.00in /  0mm OVC
11:03 58.0 °F /  14.4 °C 47.5 °F /  8.6 °C 30.37in /  1028.3hPa NW 10.4mph /  16.7km/h 10.4mph /  16.7km/h 68% 0.00in /  0mm OVC
11:08 58.2 °F /  14.6 °C 47.7 °F /  8.7 °C 30.37in /  1028.3hPa NW 10.4mph /  16.7km/h   68% 0.00in /  0mm OVC
11:13 58.2 °F /  14.6 °C 47.7 °F /  8.7 °C 30.37in /  1028.3hPa NNW 10.4mph /  16.7km/h   68% 0.00in /  0mm OVC
11:18 58.2 °F /  14.6 °C 47.7 °F /  8.7 °C 30.36in /  1028hPa NW 10.4mph /  16.7km/h 10.4mph /  16.7km/h 68% 0.00in /  0mm OVC
11:23 58.4 °F /  14.7 °C 47.9 °F /  8.8 °C 30.36in /  1028hPa NW 10.4mph /  16.7km/h 10.4mph /  16.7km/h 68% 0.00in /  0mm OVC
11:28 58.5 °F /  14.7 °C 47.6 °F /  8.7 °C 30.35in /  1027.7hPa NW 10.4mph /  16.7km/h   67% 0.00in /  0mm OVC
11:33 58.7 °F /  14.8 °C 48.2 °F /  9 °C 30.35in /  1027.7hPa NW 10.4mph /  16.7km/h 10.4mph /  16.7km/h 68% 0.00in /  0mm OVC
11:38 58.9 °F /  14.9 °C 48.4 °F /  9.1 °C 30.35in /  1027.7hPa East 10.4mph /  16.7km/h 10.4mph /  16.7km/h 68% 0.00in /  0mm OVC
11:43 59.2 °F /  15.1 °C 48.6 °F /  9.2 °C 30.35in /  1027.7hPa NNE 10.4mph /  16.7km/h   68% 0.00in /  0mm OVC
11:48 59.5 °F /  15.3 °C 48.5 °F /  9.2 °C 30.34in /  1027.3hPa NNW 10.4mph /  16.7km/h 10.4mph /  16.7km/h 67% 0.00in /  0mm OVC
11:53 59.8 °F /  15.4 °C 48.4 °F /  9.1 °C 30.34in /  1027.3hPa WNW 10.4mph /  16.7km/h 10.4mph /  16.7km/h 66% 0.00in /  0mm OVC
11:58 59.9 °F /  15.5 °C 48.5 °F /  9.2 °C 30.34in /  1027.3hPa NW 10.4mph /  16.7km/h 10.4mph /  16.7km/h 66% 0.00in /  0mm OVC
12:03 60.1 °F /  15.6 °C 48.7 °F /  9.3 °C 30.33in /  1027hPa NW 10.4mph /  16.7km/h 10.4mph /  16.7km/h 66% 0.00in /  0mm OVC
12:09 60.3 °F /  15.7 °C 48.5 °F /  9.2 °C 30.33in /  1027hPa NW 10.4mph /  16.7km/h   65% 0.00in /  0mm OVC
12:14 60.4 °F /  15.8 °C 49.0 °F /  9.4 °C 30.33in /  1027hPa NW 10.4mph /  16.7km/h   66% 0.00in /  0mm OVC
12:19 60.6 °F /  15.9 °C 48.8 °F /  9.3 °C 30.33in /  1027hPa NNE 10.4mph /  16.7km/h   65% 0.00in /  0mm OVC
12:24 60.7 °F /  15.9 °C 48.9 °F /  9.4 °C 30.33in /  1027hPa NNW 10.4mph /  16.7km/h   65% 0.00in /  0mm OVC
12:29 60.8 °F /  16 °C 48.5 °F /  9.2 °C 30.33in /  1027hPa NNW 10.4mph /  16.7km/h 10.4mph /  16.7km/h 64% 0.00in /  0mm OVC
12:34 61.0 °F /  16.1 °C 49.1 °F /  9.5 °C 30.32in /  1026.6hPa NNW 10.4mph /  16.7km/h 10.4mph /  16.7km/h 65% 0.00in /  0mm OVC
12:39 61.1 °F /  16.2 °C 48.8 °F /  9.3 °C 30.31in /  1026.3hPa WNW 10.4mph /  16.7km/h   64% 0.00in /  0mm OVC
12:44 61.1 °F /  16.2 °C 48.8 °F /  9.3 °C 30.31in /  1026.3hPa NW 10.4mph /  16.7km/h 10.4mph /  16.7km/h 64% 0.00in /  0mm OVC
12:49 61.2 °F /  16.2 °C 48.9 °F /  9.4 °C 30.31in /  1026.3hPa NW 10.4mph /  16.7km/h   64% 0.00in /  0mm OVC
12:54 61.4 °F /  16.3 °C 49.5 °F /  9.7 °C 30.30in /  1026hPa NW 10.4mph /  16.7km/h   65% 0.00in /  0mm OVC
12:59 61.7 °F /  16.5 °C 49.4 °F /  9.7 °C 30.30in /  1026hPa NW 10.4mph /  16.7km/h   64% 0.00in /  0mm OVC
13:04 61.8 °F /  16.6 °C 49.1 °F /  9.5 °C 30.30in /  1026hPa NW 10.4mph /  16.7km/h   63% 0.00in /  0mm OVC
13:10 62.0 °F /  16.7 °C 49.7 °F /  9.8 °C 30.30in /  1026hPa NW 10.4mph /  16.7km/h   64% 0.00in /  0mm OVC
13:15 62.1 °F /  16.7 °C 49.8 °F /  9.9 °C 30.29in /  1025.6hPa NW 10.4mph /  16.7km/h 10.4mph /  16.7km/h 64% 0.00in /  0mm OVC
13:20 62.2 °F /  16.8 °C 49.9 °F /  9.9 °C 30.29in /  1025.6hPa NW 10.4mph /  16.7km/h   64% 0.00in /  0mm OVC
13:25 62.1 °F /  16.7 °C 50.6 °F /  10.3 °C 30.30in /  1026hPa North 10.4mph /  16.7km/h 10.4mph /  16.7km/h 66% 0.00in /  0mm OVC
13:30 61.9 °F /  16.6 °C 50.8 °F /  10.4 °C 30.29in /  1025.6hPa NE 10.4mph /  16.7km/h   67% 0.00in /  0mm OVC
13:35 61.8 °F /  16.6 °C 51.5 °F /  10.8 °C 30.29in /  1025.6hPa NNE 10.4mph /  16.7km/h   69% 0.00in /  0mm OVC
13:40 61.7 °F /  16.5 °C 51.4 °F /  10.8 °C 30.29in /  1025.6hPa NNE 10.4mph /  16.7km/h   69% 0.00in /  0mm OVC
13:45 61.6 °F /  16.4 °C 52.1 °F /  11.2 °C 30.28in /  1025.3hPa NNE 10.4mph /  16.7km/h   71% 0.00in /  0mm OVC
13:50 61.3 °F /  16.3 °C 52.2 °F /  11.2 °C 30.29in /  1025.6hPa NNE 10.4mph /  16.7km/h   72% 0.00in /  0mm OVC
13:55 61.0 °F /  16.1 °C 52.7 °F /  11.5 °C 30.29in /  1025.6hPa West 10.4mph /  16.7km/h 10.4mph /  16.7km/h 74% 0.00in /  0mm OVC
14:00 60.7 °F /  15.9 °C 53.1 °F /  11.7 °C 30.29in /  1025.6hPa NNE 10.4mph /  16.7km/h 10.4mph /  16.7km/h 76% 0.00in /  0mm OVC
14:05 60.5 °F /  15.8 °C 53.3 °F /  11.8 °C 30.29in /  1025.6hPa NNE 10.4mph /  16.7km/h   77% 0.00in /  0mm OVC
14:10 60.5 °F /  15.8 °C 52.2 °F /  11.2 °C 30.29in /  1025.6hPa NW 10.4mph /  16.7km/h 10.4mph /  16.7km/h 74% 0.00in /  0mm OVC
14:15 60.8 °F /  16 °C 52.8 °F /  11.6 °C 30.29in /  1025.6hPa NW 10.4mph /  16.7km/h 10.4mph /  16.7km/h 75% 0.00in /  0mm OVC
14:21 61.1 °F /  16.2 °C 52.7 °F /  11.5 °C 30.29in /  1025.6hPa WNW 10.4mph /  16.7km/h 10.4mph /  16.7km/h 74% 0.00in /  0mm OVC
14:26 61.3 °F /  16.3 °C 52.6 °F /  11.4 °C 30.29in /  1025.6hPa NW 10.4mph /  16.7km/h 10.4mph /  16.7km/h 73% 0.00in /  0mm OVC
14:31 61.4 °F /  16.3 °C 53.4 °F /  11.9 °C 30.29in /  1025.6hPa NNW 10.4mph /  16.7km/h 10.4mph /  16.7km/h 75% 0.00in /  0mm OVC
14:36 60.8 °F /  16 °C 53.9 °F /  12.2 °C 30.29in /  1025.6hPa NW 10.4mph /  16.7km/h   78% 0.00in /  0mm OVC
14:41 59.9 °F /  15.5 °C 54.4 °F /  12.4 °C 30.29in /  1025.6hPa WNW 10.4mph /  16.7km/h 10.4mph /  16.7km/h 82% 0.00in /  0mm OVC
14:46 59.3 °F /  15.2 °C 54.5 °F /  12.5 °C 30.29in /  1025.6hPa NW 10.4mph /  16.7km/h 10.4mph /  16.7km/h 84% 0.00in /  0mm OVC
14:51 58.9 °F /  14.9 °C 54.7 °F /  12.6 °C 30.29in /  1025.6hPa NW 10.4mph /  16.7km/h 10.4mph /  16.7km/h 86% 0.01in /  0.25mm OVC
14:56 58.4 °F /  14.7 °C 54.5 °F /  12.5 °C 30.28in /  1025.3hPa NW 10.4mph /  16.7km/h   87% 0.02in /  0.51mm OVC
15:01 58.2 °F /  14.6 °C 54.7 °F /  12.6 °C 30.28in /  1025.3hPa NW 10.4mph /  16.7km/h   88% 0.02in /  0.51mm OVC
15:06 58.1 °F /  14.5 °C 54.6 °F /  12.6 °C 30.28in /  1025.3hPa NW 10.4mph /  16.7km/h   88% 0.02in /  0.51mm OVC
15:11 58.0 °F /  14.4 °C 54.5 °F /  12.5 °C 30.28in /  1025.3hPa NW 10.4mph /  16.7km/h   88% 0.02in /  0.51mm OVC
15:16 57.9 °F /  14.4 °C 54.7 °F /  12.6 °C 30.27in /  1024.9hPa NW 10.4mph /  16.7km/h   89% 0.02in /  0.51mm OVC
15:21 58.0 °F /  14.4 °C 54.8 °F /  12.7 °C 30.28in /  1025.3hPa NW 10.4mph /  16.7km/h   89% 0.02in /  0.51mm OVC
15:27 58.1 °F /  14.5 °C 54.9 °F /  12.7 °C 30.27in /  1024.9hPa NW 10.4mph /  16.7km/h   89% 0.02in /  0.51mm OVC
15:32 58.2 °F /  14.6 °C 55.0 °F /  12.8 °C 30.27in /  1024.9hPa NW 10.4mph /  16.7km/h   89% 0.02in /  0.51mm OVC
15:37 58.3 °F /  14.6 °C 55.1 °F /  12.8 °C 30.27in /  1024.9hPa NW 10.4mph /  16.7km/h   89% 0.02in /  0.51mm OVC
15:42 58.3 °F /  14.6 °C 55.1 °F /  12.8 °C 30.27in /  1024.9hPa NW 10.4mph /  16.7km/h   89% 0.02in /  0.51mm OVC
15:47 58.3 °F /  14.6 °C 55.1 °F /  12.8 °C 30.26in /  1024.6hPa NW 10.4mph /  16.7km/h   89% 0.02in /  0.51mm OVC
15:52 58.3 °F /  14.6 °C 55.4 °F /  13 °C 30.26in /  1024.6hPa NW 10.4mph /  16.7km/h   90% 0.01in /  0.25mm OVC
15:57 58.3 °F /  14.6 °C 55.1 °F /  12.8 °C 30.26in /  1024.6hPa NW 10.4mph /  16.7km/h   89% 0.00in /  0mm OVC
16:02 58.5 °F /  14.7 °C 55.6 °F /  13.1 °C 30.26in /  1024.6hPa NW 10.4mph /  16.7km/h   90% 0.00in /  0mm CLR
16:07 58.6 °F /  14.8 °C 55.7 °F /  13.2 °C 30.26in /  1024.6hPa NW 10.4mph /  16.7km/h   90% 0.00in /  0mm CLR
16:12 58.6 °F /  14.8 °C 55.4 °F /  13 °C 30.26in /  1024.6hPa NW 10.4mph /  16.7km/h   89% 0.00in /  0mm CLR
16:17 58.6 °F /  14.8 °C 55.4 °F /  13 °C 30.26in /  1024.6hPa NW 10.4mph /  16.7km/h   89% 0.00in /  0mm CLR
16:23 58.7 °F /  14.8 °C 55.5 °F /  13.1 °C 30.26in /  1024.6hPa NW 10.4mph /  16.7km/h   89% 0.00in /  0mm CLR
16:28 58.7 °F /  14.8 °C 55.5 °F /  13.1 °C 30.26in /  1024.6hPa NW 10.4mph /  16.7km/h   89% 0.00in /  0mm CLR
16:33 58.7 °F /  14.8 °C 55.5 °F /  13.1 °C 30.26in /  1024.6hPa NW 10.4mph /  16.7km/h   89% 0.00in /  0mm CLR
16:38 58.7 °F /  14.8 °C 55.5 °F /  13.1 °C 30.26in /  1024.6hPa NW 10.4mph /  16.7km/h   89% 0.00in /  0mm CLR
16:43 58.7 °F /  14.8 °C 55.5 °F /  13.1 °C 30.26in /  1024.6hPa NW 10.4mph /  16.7km/h   89% 0.00in /  0mm CLR
16:48 58.6 °F /  14.8 °C 55.4 °F /  13 °C 30.26in /  1024.6hPa NW 10.4mph /  16.7km/h   89% 0.00in /  0mm CLR
16:53 58.6 °F /  14.8 °C 55.4 °F /  13 °C 30.26in /  1024.6hPa NW 10.4mph /  16.7km/h   89% 0.00in /  0mm CLR
16:58 58.6 °F /  14.8 °C 55.4 °F /  13 °C 30.26in /  1024.6hPa NW 10.4mph /  16.7km/h   89% 0.00in /  0mm CLR
17:03 58.6 °F /  14.8 °C 55.4 °F /  13 °C 30.26in /  1024.6hPa NW 10.4mph /  16.7km/h   89% 0.00in /  0mm CLR
17:08 58.5 °F /  14.7 °C 55.3 °F /  12.9 °C 30.26in /  1024.6hPa NW 10.4mph /  16.7km/h   89% 0.00in /  0mm CLR
17:13 58.4 °F /  14.7 °C 55.5 °F /  13.1 °C 30.26in /  1024.6hPa NW 10.4mph /  16.7km/h   90% 0.00in /  0mm CLR
17:18 58.3 °F /  14.6 °C 55.4 °F /  13 °C 30.26in /  1024.6hPa NW 10.4mph /  16.7km/h   90% 0.00in /  0mm CLR
17:23 58.2 °F /  14.6 °C 55.3 °F /  12.9 °C 30.26in /  1024.6hPa NW 10.4mph /  16.7km/h   90% 0.00in /  0mm CLR
17:28 58.1 °F /  14.5 °C 55.2 °F /  12.9 °C 30.26in /  1024.6hPa NW 10.4mph /  16.7km/h   90% 0.00in /  0mm CLR
17:33 57.9 °F /  14.4 °C 55.0 °F /  12.8 °C 30.26in /  1024.6hPa NW 10.4mph /  16.7km/h   90% 0.00in /  0mm CLR
17:38 57.8 °F /  14.3 °C 54.9 °F /  12.7 °C 30.27in /  1024.9hPa NW 10.4mph /  16.7km/h   90% 0.00in /  0mm CLR
17:43 57.6 °F /  14.2 °C 54.7 °F /  12.6 °C 30.27in /  1024.9hPa NW 10.4mph /  16.7km/h   90% 0.00in /  0mm CLR
17:48 57.5 °F /  14.2 °C 54.6 °F /  12.6 °C 30.26in /  1024.6hPa NW 10.4mph /  16.7km/h   90% 0.00in /  0mm CLR
17:54 57.4 °F /  14.1 °C 54.5 °F /  12.5 °C 30.27in /  1024.9hPa North 10.4mph /  16.7km/h   90% 0.00in /  0mm CLR
17:59 57.4 °F /  14.1 °C 54.8 °F /  12.7 °C 30.27in /  1024.9hPa North 10.4mph /  16.7km/h   91% 0.00in /  0mm CLR
18:04 57.4 °F /  14.1 °C 54.8 °F /  12.7 °C 30.27in /  1024.9hPa North 10.4mph /  16.7km/h   91% 0.00in /  0mm
18:09 57.3 °F /  14.1 °C 54.7 °F /  12.6 °C 30.27in /  1024.9hPa North 10.4mph /  16.7km/h   91% 0.00in /  0mm
18:14 58.2 °F /  14.6 °C 55.3 °F /  12.9 °C 30.27in /  1024.9hPa NNW 10.4mph /  16.7km/h   90% 0.00in /  0mm
18:19 58.2 °F /  14.6 °C 55.3 °F /  12.9 °C 30.27in /  1024.9hPa NNW 10.4mph /  16.7km/h   90% 0.00in /  0mm
18:24 58.2 °F /  14.6 °C 55.3 °F /  12.9 °C 30.27in /  1024.9hPa North 10.4mph /  16.7km/h   90% 0.00in /  0mm
18:29 58.2 °F /  14.6 °C 55.3 °F /  12.9 °C 30.27in /  1024.9hPa North 10.4mph /  16.7km/h   90% 0.00in /  0mm
18:34 58.2 °F /  14.6 °C 55.3 °F /  12.9 °C 30.27in /  1024.9hPa North 10.4mph /  16.7km/h   90% 0.00in /  0mm
18:37 58.2 °F /  14.6 °C 55.3 °F /  12.9 °C 30.27in /  1024.9hPa North 10.4mph /  16.7km/h   90% 0.00in /  0mm
18:42 58.2 °F /  14.6 °C 55.3 °F /  12.9 °C 30.28in /  1025.3hPa North 10.4mph /  16.7km/h   90% 0.00in /  0mm
18:47 58.2 °F /  14.6 °C 55.3 °F /  12.9 °C 30.28in /  1025.3hPa North 10.4mph /  16.7km/h   90% 0.00in /  0mm
18:52 58.2 °F /  14.6 °C 55.3 °F /  12.9 °C 30.28in /  1025.3hPa North 10.4mph /  16.7km/h   90% 0.00in /  0mm
18:57 58.2 °F /  14.6 °C 55.3 °F /  12.9 °C 30.28in /  1025.3hPa North 10.4mph /  16.7km/h   90% 0.00in /  0mm
19:02 58.2 °F /  14.6 °C 55.3 °F /  12.9 °C 30.28in /  1025.3hPa North 10.4mph /  16.7km/h   90% 0.00in /  0mm
19:07 58.2 °F /  14.6 °C 55.3 °F /  12.9 °C 30.28in /  1025.3hPa North 10.4mph /  16.7km/h   90% 0.00in /  0mm
19:12 58.2 °F /  14.6 °C 55.3 °F /  12.9 °C 30.28in /  1025.3hPa North 10.4mph /  16.7km/h   90% 0.00in /  0mm
19:17 58.2 °F /  14.6 °C 55.3 °F /  12.9 °C 30.28in /  1025.3hPa North 10.4mph /  16.7km/h   90% 0.00in /  0mm
19:22 58.2 °F /  14.6 °C 55.3 °F /  12.9 °C 30.29in /  1025.6hPa North 10.4mph /  16.7km/h   90% 0.00in /  0mm
19:27 58.2 °F /  14.6 °C 55.3 °F /  12.9 °C 30.28in /  1025.3hPa North 10.4mph /  16.7km/h   90% 0.00in /  0mm
19:32 58.2 °F /  14.6 °C 55.3 °F /  12.9 °C 30.28in /  1025.3hPa North 10.4mph /  16.7km/h   90% 0.00in /  0mm
19:37 58.2 °F /  14.6 °C 55.3 °F /  12.9 °C 30.29in /  1025.6hPa North 10.4mph /  16.7km/h   90% 0.00in /  0mm
19:42 58.2 °F /  14.6 °C 55.3 °F /  12.9 °C 30.29in /  1025.6hPa North 10.4mph /  16.7km/h   90% 0.00in /  0mm
19:48 58.2 °F /  14.6 °C 55.3 °F /  12.9 °C 30.29in /  1025.6hPa North 10.4mph /  16.7km/h   90% 0.00in /  0mm
19:53 58.2 °F /  14.6 °C 55.3 °F /  12.9 °C 30.29in /  1025.6hPa North 10.4mph /  16.7km/h   90% 0.00in /  0mm
19:58 58.2 °F /  14.6 °C 55.3 °F /  12.9 °C 30.29in /  1025.6hPa North 10.4mph /  16.7km/h   90% 0.00in /  0mm
20:03 58.2 °F /  14.6 °C 55.3 °F /  12.9 °C 30.28in /  1025.3hPa North 10.4mph /  16.7km/h   90% 0.00in /  0mm
20:08 58.2 °F /  14.6 °C 55.3 °F /  12.9 °C 30.28in /  1025.3hPa North 10.4mph /  16.7km/h   90% 0.00in /  0mm
20:13 58.2 °F /  14.6 °C 55.3 °F /  12.9 °C 30.28in /  1025.3hPa North 10.4mph /  16.7km/h   90% 0.00in /  0mm
20:18 58.2 °F /  14.6 °C 55.3 °F /  12.9 °C 30.28in /  1025.3hPa North 10.4mph /  16.7km/h   90% 0.00in /  0mm
20:23 58.2 °F /  14.6 °C 55.3 °F /  12.9 °C 30.28in /  1025.3hPa North 10.4mph /  16.7km/h   90% 0.00in /  0mm
20:28 58.2 °F /  14.6 °C 55.3 °F /  12.9 °C 30.28in /  1025.3hPa North 10.4mph /  16.7km/h   90% 0.00in /  0mm
20:33 58.2 °F /  14.6 °C 55.3 °F /  12.9 °C 30.28in /  1025.3hPa North 10.4mph /  16.7km/h   90% 0.00in /  0mm
20:38 58.2 °F /  14.6 °C 55.3 °F /  12.9 °C 30.28in /  1025.3hPa North 10.4mph /  16.7km/h   90% 0.00in /  0mm
20:43 58.2 °F /  14.6 °C 55.3 °F /  12.9 °C 30.28in /  1025.3hPa North 10.4mph /  16.7km/h   90% 0.00in /  0mm
20:48 58.2 °F /  14.6 °C 55.3 °F /  12.9 °C 30.28in /  1025.3hPa North 10.4mph /  16.7km/h   90% 0.00in /  0mm
20:53 58.2 °F /  14.6 °C 55.3 °F /  12.9 °C 30.28in /  1025.3hPa North 10.4mph /  16.7km/h   90% 0.00in /  0mm
20:58 58.2 °F /  14.6 °C 55.3 °F /  12.9 °C 30.28in /  1025.3hPa North 10.4mph /  16.7km/h   90% 0.00in /  0mm
21:03 58.2 °F /  14.6 °C 55.3 °F /  12.9 °C 30.29in /  1025.6hPa North 10.4mph /  16.7km/h   90% 0.00in /  0mm
21:08 58.2 °F /  14.6 °C 55.3 °F /  12.9 °C 30.28in /  1025.3hPa North 10.4mph /  16.7km/h   90% 0.00in /  0mm
21:13 58.2 °F /  14.6 °C 55.3 °F /  12.9 °C 30.29in /  1025.6hPa North 10.4mph /  16.7km/h   90% 0.00in /  0mm
21:19 58.2 °F /  14.6 °C 55.3 °F /  12.9 °C 30.29in /  1025.6hPa North 10.4mph /  16.7km/h   90% 0.00in /  0mm
21:24 58.2 °F /  14.6 °C 55.3 °F /  12.9 °C 30.29in /  1025.6hPa North 10.4mph /  16.7km/h   90% 0.00in /  0mm
21:29 58.2 °F /  14.6 °C 55.3 °F /  12.9 °C 30.29in /  1025.6hPa North 10.4mph /  16.7km/h   90% 0.00in /  0mm
21:34 58.2 °F /  14.6 °C 55.3 °F /  12.9 °C 30.29in /  1025.6hPa North 10.4mph /  16.7km/h   90% 0.00in /  0mm
21:39 58.2 °F /  14.6 °C 55.3 °F /  12.9 °C 30.29in /  1025.6hPa North 10.4mph /  16.7km/h   90% 0.00in /  0mm
21:44 58.2 °F /  14.6 °C 55.3 °F /  12.9 °C 30.29in /  1025.6hPa North 10.4mph /  16.7km/h   90% 0.00in /  0mm
21:49 58.2 °F /  14.6 °C 55.3 °F /  12.9 °C 30.29in /  1025.6hPa North 10.4mph /  16.7km/h   90% 0.00in /  0mm
21:54 58.2 °F /  14.6 °C 55.3 °F /  12.9 °C 30.29in /  1025.6hPa North 10.4mph /  16.7km/h   90% 0.00in /  0mm
21:59 58.2 °F /  14.6 °C 55.3 °F /  12.9 °C 30.29in /  1025.6hPa North 10.4mph /  16.7km/h   90% 0.00in /  0mm
22:04 58.2 °F /  14.6 °C 55.3 °F /  12.9 °C 30.29in /  1025.6hPa North 10.4mph /  16.7km/h   90% 0.00in /  0mm
22:09 58.2 °F /  14.6 °C 55.3 °F /  12.9 °C 30.29in /  1025.6hPa North 10.4mph /  16.7km/h   90% 0.00in /  0mm
22:14 58.2 °F /  14.6 °C 55.3 °F /  12.9 °C 30.29in /  1025.6hPa North 10.4mph /  16.7km/h   90% 0.00in /  0mm
22:25 58.2 °F /  14.6 °C 55.3 °F /  12.9 °C 30.29in /  1025.6hPa North 10.4mph /  16.7km/h   90% 0.00in /  0mm
22:30 58.2 °F /  14.6 °C 55.3 °F /  12.9 °C 30.29in /  1025.6hPa North 10.4mph /  16.7km/h   90% 0.00in /  0mm
22:35 58.2 °F /  14.6 °C 55.3 °F /  12.9 °C 30.29in /  1025.6hPa North 10.4mph /  16.7km/h   90% 0.00in /  0mm
22:40 58.2 °F /  14.6 °C 55.3 °F /  12.9 °C 30.28in /  1025.3hPa North 10.4mph /  16.7km/h   90% 0.00in /  0mm
22:45 58.2 °F /  14.6 °C 55.3 °F /  12.9 °C 30.28in /  1025.3hPa North 10.4mph /  16.7km/h   90% 0.00in /  0mm
22:50 58.2 °F /  14.6 °C 55.3 °F /  12.9 °C 30.28in /  1025.3hPa North 10.4mph /  16.7km/h   90% 0.00in /  0mm
22:55 58.2 °F /  14.6 °C 55.3 °F /  12.9 °C 30.28in /  1025.3hPa North 10.4mph /  16.7km/h   90% 0.00in /  0mm
23:00 58.2 °F /  14.6 °C 55.3 °F /  12.9 °C 30.28in /  1025.3hPa North 10.4mph /  16.7km/h   90% 0.00in /  0mm
23:05 58.2 °F /  14.6 °C 55.3 °F /  12.9 °C 30.28in /  1025.3hPa North 10.4mph /  16.7km/h   90% 0.00in /  0mm
23:10 58.2 °F /  14.6 °C 55.3 °F /  12.9 °C 30.28in /  1025.3hPa North 10.4mph /  16.7km/h   90% 0.00in /  0mm
23:15 58.2 °F /  14.6 °C 55.3 °F /  12.9 °C 30.28in /  1025.3hPa North 10.4mph /  16.7km/h   90% 0.00in /  0mm
23:20 58.2 °F /  14.6 °C 55.3 °F /  12.9 °C 30.28in /  1025.3hPa North 10.4mph /  16.7km/h   90% 0.00in /  0mm
23:25 58.2 °F /  14.6 °C 55.3 °F /  12.9 °C 30.28in /  1025.3hPa North 10.4mph /  16.7km/h   90% 0.00in /  0mm
23:30 58.2 °F /  14.6 °C 55.3 °F /  12.9 °C 30.27in /  1024.9hPa North 10.4mph /  16.7km/h   90% 0.00in /  0mm
23:36 58.2 °F /  14.6 °C 55.3 °F /  12.9 °C 30.27in /  1024.9hPa North 10.4mph /  16.7km/h   90% 0.00in /  0mm
23:41 58.2 °F /  14.6 °C 55.3 °F /  12.9 °C 30.27in /  1024.9hPa North 10.4mph /  16.7km/h   90% 0.00in /  0mm
23:46 58.2 °F /  14.6 °C 55.3 °F /  12.9 °C 30.27in /  1024.9hPa North 10.4mph /  16.7km/h   90% 0.00in /  0mm
23:51 58.2 °F /  14.6 °C 55.3 °F /  12.9 °C 30.28in /  1025.3hPa North 10.4mph /  16.7km/h   90% 0.00in /  0mm
23:56 58.2 °F /  14.6 °C 55.3 °F /  12.9 °C 30.28in /  1025.3hPa North 10.4mph /  16.7km/h   90% 0.00in /  0mm
Piedmont Bend
Compliments of Weather Underground - 2 mb